Time;durP1;ratioP1;P1;durP2;ratioP2;P2;SDS_P1;SDS_P2;PMS_P1;PMS_P2;Temp;Humidity;BMP_temperature;BMP_pressure;BME280_temperature;BME280_humidity;BME280_pressure;Samples;Min_cycle;Max_cycle;Signal;HPM_P1;HPM_P2
2021/04/03 00:04:05;;;;;;;15.83;9.43;;;;;;;9.20;100.00;94366.50;10442330;28;20036;-72
2021/04/03 00:09:06;;;;;;;21.13;11.53;;;;;;;9.01;100.00;94357.47;10443688;28;20396;-72
2021/04/03 00:14:06;;;;;;;19.83;11.07;;;;;;;9.03;100.00;94341.91;10442627;28;20071;-72
2021/04/03 00:19:07;;;;;;;29.43;12.80;;;;;;;9.00;100.00;94345.13;10442889;28;20040;-72
2021/04/03 00:24:08;;;;;;;26.17;13.10;;;;;;;9.11;100.00;94329.81;10443375;28;20197;-72
2021/04/03 00:29:08;;;;;;;24.77;14.02;;;;;;;9.23;100.00;94327.63;10460641;28;20040;-72
2021/04/03 00:34:09;;;;;;;26.20;13.47;;;;;;;9.27;100.00;94326.00;10483052;28;20047;-72
2021/04/03 00:39:09;;;;;;;23.50;14.10;;;;;;;9.40;100.00;94336.16;10484571;28;20062;-72
2021/04/03 00:44:09;;;;;;;24.07;14.20;;;;;;;9.51;100.00;94328.03;10483817;28;20032;-72
2021/04/03 00:49:10;;;;;;;27.43;13.53;;;;;;;9.50;100.00;94326.44;10483344;28;20111;-72
2021/04/03 00:54:10;;;;;;;26.37;14.10;;;;;;;9.52;100.00;94316.25;10484476;28;20029;-72
2021/04/03 00:59:10;;;;;;;21.70;13.77;;;;;;;9.37;100.00;94317.91;10483903;28;20350;-72
2021/04/03 01:04:11;;;;;;;26.40;14.10;;;;;;;9.48;100.00;94329.41;10491162;28;20032;-72
2021/04/03 01:09:11;;;;;;;26.83;15.17;;;;;;;9.45;100.00;94331.84;10493410;28;20059;-72
2021/04/03 01:14:20;;;;;;;27.17;15.33;;;;;;;9.41;100.00;94318.97;10494529;28;20119;-72
2021/04/03 01:19:45;;;;;;;28.85;15.55;;;;;;;9.37;100.00;94317.13;10491859;28;20027;-72
2021/04/03 01:25:03;;;;;;;28.95;16.85;;;;;;;9.26;100.00;94313.66;10493470;28;20081;-72
2021/04/03 01:30:15;;;;;;;33.97;19.77;;;;;;;9.20;100.00;94312.09;10493541;28;20093;-72
2021/04/03 01:35:21;;;;;;;28.23;16.05;;;;;;;9.16;100.00;94311.03;10507663;28;20036;-72
2021/04/03 01:40:22;;;;;;;39.00;18.60;;;;;;;8.85;100.00;94311.94;10493243;28;20037;-72
2021/04/03 01:45:23;;;;;;;35.60;18.83;;;;;;;8.72;100.00;94312.50;10494046;28;20024;-72
2021/04/03 01:50:25;;;;;;;34.15;20.13;;;;;;;8.62;100.00;94297.25;10492694;28;20024;-72
2021/04/03 01:55:26;;;;;;;36.15;20.55;;;;;;;8.58;100.00;94309.56;10492891;28;20024;-72
2021/04/03 02:00:28;;;;;;;47.47;23.13;;;;;;;8.58;100.00;94301.53;10493084;28;20480;-72
2021/04/03 02:05:30;;;;;;;44.63;25.85;;;;;;;8.50;100.00;94291.41;10490828;28;20058;-72
2021/04/03 02:10:32;;;;;;;39.10;23.20;;;;;;;8.45;100.00;94297.56;10489326;28;20037;-72
2021/04/03 02:15:32;;;;;;;46.15;24.63;;;;;;;8.29;100.00;94294.06;10489188;28;20036;-72
2021/04/03 02:20:33;;;;;;;51.63;24.80;;;;;;;8.21;100.00;94290.06;10488274;28;20028;-72
2021/04/03 02:25:34;;;;;;;54.70;25.58;;;;;;;8.11;100.00;94298.09;10487258;28;20451;-72
2021/04/03 02:30:34;;;;;;;49.45;24.63;;;;;;;8.05;100.00;94288.44;10488291;28;20027;-72
2021/04/03 02:35:34;;;;;;;42.90;22.77;;;;;;;8.10;100.00;94283.09;10487838;28;20025;-72
2021/04/03 02:40:35;;;;;;;50.20;24.08;;;;;;;8.14;100.00;94286.06;10487630;28;20483;-72
2021/04/03 02:45:40;;;;;;;47.67;24.20;;;;;;;8.16;100.00;94276.69;10487736;28;20024;-72
2021/04/03 02:50:42;;;;;;;47.40;24.80;;;;;;;8.18;100.00;94271.06;10487012;28;20107;-72
2021/04/03 02:55:53;;;;;;;45.30;22.80;;;;;;;8.14;100.00;94270.78;10486823;28;20567;-72
2021/04/03 03:00:56;;;;;;;47.80;25.75;;;;;;;7.96;100.00;94264.09;10487001;28;20038;-72
2021/04/03 03:05:58;;;;;;;44.08;23.40;;;;;;;8.09;100.00;94262.75;10485999;28;20050;-72
2021/04/03 03:11:00;;;;;;;42.53;22.88;;;;;;;8.16;100.00;94259.81;10459810;28;20029;-72
2021/04/03 03:16:06;;;;;;;39.63;21.95;;;;;;;8.07;100.00;94262.25;10443933;28;20024;-72
2021/04/03 03:21:08;;;;;;;42.58;22.23;;;;;;;8.13;100.00;94253.13;10444300;28;20025;-72
2021/04/03 03:26:09;;;;;;;38.88;22.10;;;;;;;8.12;100.00;94245.38;10444132;28;20032;-72
2021/04/03 03:31:09;;;;;;;43.38;23.95;;;;;;;8.15;100.00;94237.59;10477588;28;20747;-72
2021/04/03 03:36:10;;;;;;;37.92;22.58;;;;;;;8.02;100.00;94246.19;10485267;28;20089;-72
2021/04/03 03:41:12;;;;;;;36.53;21.52;;;;;;;7.95;100.00;94251.00;10484852;28;20428;-72
2021/04/03 03:46:12;;;;;;;37.50;22.52;;;;;;;8.11;100.00;94246.47;10483429;28;20047;-72
2021/04/03 03:51:13;;;;;;;34.75;21.42;;;;;;;8.14;100.00;94243.25;10484589;28;20122;-74
2021/04/03 03:56:15;;;;;;;38.75;20.25;;;;;;;8.15;100.00;94247.50;10482771;28;20028;-76
2021/04/03 04:01:15;;;;;;;41.38;22.92;;;;;;;8.02;100.00;94240.81;10483077;28;20020;-74
2021/04/03 04:06:16;;;;;;;44.50;21.33;;;;;;;7.88;100.00;94251.25;10482627;28;20048;-75
2021/04/03 04:11:16;;;;;;;37.25;22.00;;;;;;;7.85;100.00;94263.31;10482040;28;20733;-74
2021/04/03 04:16:17;;;;;;;34.38;21.35;;;;;;;7.72;100.00;94258.50;10482525;28;20027;-75
2021/04/03 04:21:17;;;;;;;40.47;22.23;;;;;;;7.92;100.00;94260.38;10481881;28;20020;-75
2021/04/03 04:26:18;;;;;;;38.15;22.13;;;;;;;7.96;100.00;94260.66;10480431;28;20085;-75
2021/04/03 04:31:18;;;;;;;41.55;22.50;;;;;;;8.06;100.00;94265.97;10482449;28;20039;-76
2021/04/03 04:36:19;;;;;;;41.63;23.75;;;;;;;8.22;100.00;94256.06;10462170;28;20086;-74
2021/04/03 04:41:19;;;;;;;46.50;25.93;;;;;;;8.21;100.00;94251.78;10460587;28;20016;-75
2021/04/03 04:46:20;;;;;;;28.02;17.50;;;;;;;8.33;100.00;94256.84;10482263;28;20518;-74
2021/04/03 04:51:21;;;;;;;27.45;17.02;;;;;;;8.34;100.00;94250.41;10482208;28;20028;-75
2021/04/03 04:56:21;;;;;;;32.53;18.92;;;;;;;8.43;100.00;94264.06;10481723;28;20035;-74
2021/04/03 05:01:21;;;;;;;34.07;17.43;;;;;;;8.42;100.00;94271.28;10481652;28;20061;-74
2021/04/03 05:06:22;;;;;;;27.70;18.90;;;;;;;8.74;100.00;94269.38;10480465;28;20048;-75
2021/04/03 05:11:22;;;;;;;26.93;18.00;;;;;;;8.86;100.00;94261.81;10481998;28;20751;-75
2021/04/03 05:16:22;;;;;;;25.77;16.50;;;;;;;9.14;100.00;94255.03;10480591;28;20540;-74
2021/04/03 05:21:23;;;;;;;26.77;17.07;;;;;;;9.43;100.00;94257.00;10481443;28;20024;-74
2021/04/03 05:26:23;;;;;;;26.00;15.77;;;;;;;9.60;100.00;94237.88;10473653;28;20044;-74
2021/04/03 05:31:24;;;;;;;25.42;16.10;;;;;;;9.70;100.00;94235.09;10459668;28;20021;-74
2021/04/03 05:36:24;;;;;;;24.33;15.37;;;;;;;9.60;100.00;94251.28;10472440;28;20103;-74
2021/04/03 05:41:24;;;;;;;32.63;17.90;;;;;;;9.90;100.00;94244.88;10480280;28;20285;-74
2021/04/03 05:46:26;;;;;;;26.93;15.77;;;;;;;10.18;100.00;94239.00;10481962;28;20271;-74
2021/04/03 05:51:26;;;;;;;24.02;15.13;;;;;;;10.99;100.00;94239.25;10488606;28;20111;-74
2021/04/03 05:56:28;;;;;;;23.40;14.25;;;;;;;11.61;100.00;94235.75;10482138;28;20051;-72
2021/04/03 06:01:28;;;;;;;25.15;15.50;;;;;;;12.26;100.00;94248.47;10456140;28;20407;-72
2021/04/03 06:06:29;;;;;;;20.90;11.70;;;;;;;12.98;100.00;94251.78;10489015;28;20037;-73
2021/04/03 06:11:29;;;;;;;22.70;14.45;;;;;;;13.36;100.00;94232.66;10491467;28;20036;-72
2021/04/03 06:16:30;;;;;;;17.90;11.00;;;;;;;14.73;100.00;94239.69;10469659;28;20032;-72
2021/04/03 06:21:31;;;;;;;26.08;14.32;;;;;;;15.33;100.00;94251.84;10448243;28;20044;-73
2021/04/03 06:26:31;;;;;;;21.50;12.57;;;;;;;15.68;100.00;94240.28;10449289;28;20044;-73
2021/04/03 06:31:39;;;;;;;19.60;11.50;;;;;;;16.88;100.00;94241.56;10448305;28;20287;-73
2021/04/03 06:36:45;;;;;;;15.43;10.48;;;;;;;17.55;91.06;94237.28;10450111;28;20575;-73
2021/04/03 06:41:45;;;;;;;14.90;9.38;;;;;;;17.25;87.95;94228.34;10449772;28;20082;-73
2021/04/03 06:46:47;;;;;;;15.50;9.27;;;;;;;16.94;95.22;94231.38;10449883;28;20017;-74
2021/04/03 06:51:47;;;;;;;17.83;10.13;;;;;;;16.40;96.86;94221.78;10470408;28;20293;-74
2021/04/03 06:56:48;;;;;;;16.70;10.90;;;;;;;16.38;100.00;94229.41;10490006;28;20028;-73
2021/04/03 07:01:53;;;;;;;23.83;11.50;;;;;;;16.57;100.00;94226.34;10488861;28;20453;-73
2021/04/03 07:06:57;;;;;;;18.13;10.70;;;;;;;15.58;100.00;94218.94;10490145;28;20127;-73
2021/04/03 07:11:58;;;;;;;22.98;12.77;;;;;;;14.90;100.00;94214.63;10485741;28;20115;-74
2021/04/03 07:17:01;;;;;;;22.08;12.45;;;;;;;15.03;100.00;94207.53;10485022;28;20039;-73
2021/04/03 07:22:01;;;;;;;24.85;13.10;;;;;;;16.55;95.28;94217.75;10486355;28;20028;-73
2021/04/03 07:27:02;;;;;;;26.15;12.52;;;;;;;15.95;100.00;94220.25;10485125;28;20025;-73
2021/04/03 07:32:03;;;;;;;20.77;12.65;;;;;;;15.10;100.00;94207.84;10484368;28;20434;-73
2021/04/03 07:37:03;;;;;;;19.92;12.27;;;;;;;15.12;100.00;94215.66;10485710;28;20109;-73
2021/04/03 07:42:05;;;;;;;20.42;13.27;;;;;;;15.45;100.00;94199.00;10484520;28;20020;-73
2021/04/03 07:47:20;;;;;;;18.67;11.55;;;;;;;15.50;100.00;94196.94;10484643;28;20036;-73
2021/04/03 07:52:54;;;;;;;21.98;11.43;;;;;;;16.88;91.17;94190.00;10484311;28;20027;-73
2021/04/03 07:58:31;;;;;;;24.08;12.98;;;;;;;18.74;78.77;94194.47;10484833;28;20024;-74
2021/04/03 08:03:32;;;;;;;16.23;10.70;;;;;;;19.24;72.14;94187.16;10483485;28;20475;-73
2021/04/03 08:08:35;;;;;;;15.20;10.30;;;;;;;21.15;61.46;94187.78;10483539;28;20049;-74
2021/04/03 08:13:37;;;;;;;17.42;10.18;;;;;;;19.84;61.13;94186.63;10483953;28;20025;-75
2021/04/03 08:18:40;;;;;;;19.75;11.05;;;;;;;18.64;72.81;94190.28;10483554;28;20407;-75
2021/04/03 08:23:45;;;;;;;16.42;10.15;;;;;;;18.84;74.75;94191.34;10483285;28;20016;-76
2021/04/03 08:28:47;;;;;;;25.98;10.75;;;;;;;20.87;68.66;94173.41;10483722;28;20093;-75
2021/04/03 08:33:49;;;;;;;18.77;10.60;;;;;;;22.76;52.37;94166.88;10483723;28;20372;-76
2021/04/03 08:38:52;;;;;;;18.05;8.77;;;;;;;23.63;49.46;94162.75;10483271;28;20058;-76
2021/04/03 08:43:54;;;;;;;15.85;9.20;;;;;;;25.12;45.50;94163.22;10482729;28;20527;-76
2021/04/03 08:48:57;;;;;;;15.48;8.82;;;;;;;25.40;41.42;94157.97;10485781;28;20483;-75
2021/04/03 08:53:58;;;;;;;17.60;8.32;;;;;;;24.92;43.29;94138.72;10440999;28;20029;-75
2021/04/03 08:59:01;;;;;;;17.25;9.30;;;;;;;24.97;45.67;94130.13;10441927;28;20028;-75
2021/04/03 09:04:07;;;;;;;14.75;8.85;;;;;;;23.92;44.82;94122.78;10441171;28;20115;-75
2021/04/03 09:09:16;;;;;;;16.73;8.98;;;;;;;22.69;52.24;94110.00;10452535;28;20136;-75
2021/04/03 09:14:36;;;;;;;16.10;7.97;;;;;;;24.43;43.83;94104.88;10493123;28;20047;-75
2021/04/03 09:19:37;;;;;;;17.33;8.27;;;;;;;25.14;43.20;94100.41;10484950;28;20040;-76
2021/04/03 09:24:42;;;;;;;13.83;7.57;;;;;;;24.97;43.25;94090.84;10489843;28;20028;-76
2021/04/03 09:29:53;;;;;;;13.77;7.65;;;;;;;23.72;44.47;94094.66;10452510;28;20033;-75
2021/04/03 09:35:03;;;;;;;15.00;8.38;;;;;;;23.19;47.43;94079.06;10450373;28;20122;-75
2021/04/03 09:40:06;;;;;;;15.93;7.50;;;;;;;23.11;48.12;94069.13;10478119;28;20089;-76
2021/04/03 09:45:08;;;;;;;15.38;8.90;;;;;;;23.32;47.45;94082.41;10492957;28;20100;-75
2021/04/03 09:50:08;;;;;;;10.55;6.95;;;;;;;23.39;46.20;94066.03;10493535;28;20131;-76
2021/04/03 09:55:09;;;;;;;12.20;7.43;;;;;;;24.05;44.62;94049.19;10492283;28;20039;-75
2021/04/03 10:00:10;;;;;;;11.27;7.18;;;;;;;26.70;39.14;94028.25;10492793;28;20453;-75
2021/04/03 10:05:12;;;;;;;11.50;6.18;;;;;;;29.28;35.25;94030.19;10492538;28;20044;-75
2021/04/03 10:10:12;;;;;;;8.85;5.45;;;;;;;31.28;30.58;94015.91;10489708;28;20807;-76
2021/04/03 10:15:13;;;;;;;8.43;5.23;;;;;;;32.49;29.03;94000.75;10487154;28;20035;-76
2021/04/03 10:20:14;;;;;;;12.63;5.43;;;;;;;31.35;29.22;93996.34;10488522;28;20313;-76
2021/04/03 10:25:15;;;;;;;14.25;6.68;;;;;;;28.50;34.00;93993.69;10476153;28;20534;-76
2021/04/03 10:30:16;;;;;;;13.80;7.72;;;;;;;25.97;38.04;93986.03;10446228;28;20120;-75
2021/04/03 10:35:16;;;;;;;15.05;6.65;;;;;;;24.42;40.66;93984.41;10485749;28;20040;-75
2021/04/03 10:40:17;;;;;;;14.50;8.20;;;;;;;22.42;44.92;93998.84;10486966;28;20036;-75
2021/04/03 10:45:17;;;;;;;13.40;7.97;;;;;;;21.44;48.45;93988.06;10487383;28;20274;-75
2021/04/03 10:50:18;;;;;;;14.43;10.38;;;;;;;20.91;55.94;93980.38;10486439;28;20020;-75
2021/04/03 10:55:19;;;;;;;22.75;10.30;;;;;;;20.43;58.30;93992.16;10485481;28;20513;-74
2021/04/03 11:00:19;;;;;;;13.93;8.30;;;;;;;20.09;61.49;93988.19;10486255;28;20028;-74
2021/04/03 11:05:21;;;;;;;22.05;11.85;;;;;;;19.06;69.85;94034.09;10486123;28;20176;-73
2021/04/03 11:10:22;;;;;;;23.92;16.45;;;;;;;17.36;100.00;94057.66;10460210;28;20530;-74
2021/04/03 11:15:22;;;;;;;23.35;15.27;;;;;;;15.55;100.00;94071.41;10443732;28;20119;-73
2021/04/03 11:20:23;;;;;;;29.35;16.98;;;;;;;14.82;100.00;94069.34;10443762;28;20036;-73
2021/04/03 11:25:23;;;;;;;32.23;17.80;;;;;;;14.31;100.00;94068.84;10478356;28;20135;-73
2021/04/03 11:30:24;;;;;;;22.13;13.52;;;;;;;13.99;100.00;94062.69;10484361;28;20086;-73
2021/04/03 11:35:24;;;;;;;21.20;12.65;;;;;;;12.95;100.00;94058.97;10483909;28;20047;-73
2021/04/03 11:40:25;;;;;;;21.63;12.27;;;;;;;13.12;100.00;94027.84;10484435;28;20017;-73
2021/04/03 11:45:25;;;;;;;22.50;11.50;;;;;;;12.68;100.00;94018.59;10483847;28;20032;-73
2021/04/03 11:50:26;;;;;;;20.50;12.25;;;;;;;12.40;100.00;93999.78;10484040;28;20086;-73
2021/04/03 11:55:27;;;;;;;14.98;9.02;;;;;;;12.65;100.00;93987.66;10479570;28;20514;-73
2021/04/03 12:00:27;;;;;;;15.93;9.60;;;;;;;12.85;100.00;93997.19;10442253;28;20131;-73
2021/04/03 12:05:27;;;;;;;18.00;10.40;;;;;;;12.71;100.00;94008.03;10441915;28;20337;-72
2021/04/03 12:10:28;;;;;;;18.80;9.90;;;;;;;12.80;100.00;94016.16;10441915;28;20040;-72
2021/04/03 12:15:28;;;;;;;22.93;12.30;;;;;;;12.96;100.00;94005.81;10442003;28;20033;-72
2021/04/03 12:20:28;;;;;;;22.50;12.10;;;;;;;13.09;100.00;93994.19;10440928;28;20025;-72
2021/04/03 12:25:29;;;;;;;16.17;7.93;;;;;;;13.10;100.00;93992.28;10442337;28;20278;-73
2021/04/03 12:30:29;;;;;;;16.10;8.57;;;;;;;13.13;100.00;93989.75;10440796;28;20114;-72
2021/04/03 12:35:30;;;;;;;15.65;8.93;;;;;;;13.03;100.00;93991.91;10440611;28;20307;-72
2021/04/03 12:40:30;;;;;;;17.15;8.68;;;;;;;12.44;100.00;94036.59;10442231;28;20055;-72
2021/04/03 12:45:31;;;;;;;33.77;12.47;;;;;;;12.05;100.00;94004.81;10441714;28;20025;-72
2021/04/03 12:50:31;;;;;;;26.73;14.57;;;;;;;11.76;100.00;94006.69;10451783;28;20309;-72
2021/04/03 12:55:32;;;;;;;22.63;13.47;;;;;;;11.77;100.00;93999.41;10484702;28;20021;-72
2021/04/03 13:00:32;;;;;;;24.98;14.95;;;;;;;11.80;100.00;94018.47;10491392;28;20040;-72
2021/04/03 13:05:33;;;;;;;35.55;16.42;;;;;;;11.69;100.00;94027.81;10480588;28;20049;-72
2021/04/03 13:10:34;;;;;;;34.45;16.10;;;;;;;11.92;100.00;94027.94;10449810;28;20033;-72
2021/04/03 13:15:34;;;;;;;32.67;18.02;;;;;;;12.16;100.00;94030.44;10449951;28;20033;-73
2021/04/03 13:20:35;;;;;;;33.17;18.87;;;;;;;12.62;100.00;94020.63;10448265;28;20430;-73
2021/04/03 13:25:36;;;;;;;31.33;16.20;;;;;;;12.83;100.00;94016.34;10449704;28;20021;-73
2021/04/03 13:30:36;;;;;;;29.10;15.85;;;;;;;13.03;100.00;94008.88;10448809;28;20029;-73
2021/04/03 13:35:37;;;;;;;29.17;15.57;;;;;;;13.11;100.00;93997.34;10448373;28;20020;-72
2021/04/03 13:40:38;;;;;;;25.53;15.20;;;;;;;13.00;100.00;94009.50;10447278;28;20457;-74
2021/04/03 13:45:39;;;;;;;24.42;13.32;;;;;;;12.69;100.00;93998.63;10448618;28;20104;-74
2021/04/03 13:50:40;;;;;;;21.05;13.07;;;;;;;12.81;100.00;93997.00;10459719;28;20060;-72
2021/04/03 13:55:40;;;;;;;23.50;14.07;;;;;;;12.46;100.00;94017.44;10488872;28;20550;-73
2021/04/03 14:00:40;;;;;;;26.43;16.67;;;;;;;12.24;100.00;93994.72;10489358;28;20266;-73
2021/04/03 14:05:42;;;;;;;29.93;16.03;;;;;;;12.47;100.00;94008.25;10489301;28;21136;-72
2021/04/03 14:10:43;;;;;;;28.88;13.40;;;;;;;12.43;100.00;94008.09;10490328;28;20028;-74
2021/04/03 14:15:43;;;;;;;24.63;13.45;;;;;;;12.19;100.00;94007.50;10468309;28;20025;-73
2021/04/03 14:20:44;;;;;;;25.03;14.57;;;;;;;12.30;100.00;94030.44;10449623;28;20050;-73
2021/04/03 14:25:44;;;;;;;28.15;17.17;;;;;;;11.71;100.00;94032.91;10450059;28;20029;-73
2021/04/03 14:30:44;;;;;;;40.93;23.03;;;;;;;11.26;100.00;94057.59;10464597;28;20395;-73
2021/04/03 14:35:45;;;;;;;40.10;21.87;;;;;;;10.70;100.00;94052.00;10491227;28;20025;-73
2021/04/03 14:40:45;;;;;;;43.87;25.00;;;;;;;10.37;100.00;94076.06;10490022;28;20336;-75
2021/04/03 14:45:45;;;;;;;44.57;22.80;;;;;;;10.40;100.00;94066.66;10490802;28;20283;-74
2021/04/03 14:50:46;;;;;;;42.97;24.17;;;;;;;10.33;100.00;94075.03;10468317;28;20017;-75
2021/04/03 14:55:46;;;;;;;44.13;24.83;;;;;;;9.65;100.00;94100.97;10490273;28;20019;-75
2021/04/03 15:00:46;;;;;;;55.87;29.20;;;;;;;9.35;100.00;94118.94;10486500;28;20025;-75
2021/04/03 15:05:47;;;;;;;59.28;30.17;;;;;;;9.29;100.00;94122.72;10449120;28;20900;-74
2021/04/03 15:10:47;;;;;;;53.57;27.97;;;;;;;9.19;100.00;94110.19;10445851;28;20061;-74
2021/04/03 15:15:48;;;;;;;56.70;29.23;;;;;;;9.32;100.00;94089.19;10445142;28;20654;-73
2021/04/03 15:20:48;;;;;;;57.85;33.38;;;;;;;10.02;100.00;94104.91;10443543;28;20028;-73
2021/04/03 15:25:49;;;;;;;52.87;27.83;;;;;;;10.54;100.00;94128.53;10443838;28;20029;-74
2021/04/03 15:30:49;;;;;;;50.67;26.92;;;;;;;10.36;100.00;94128.19;10460181;28;20291;-74
2021/04/03 15:35:49;;;;;;;48.73;27.43;;;;;;;9.73;100.00;94124.50;10461821;28;20078;-74
2021/04/03 15:40:50;;;;;;;44.03;24.93;;;;;;;9.37;100.00;94114.09;10460842;28;20017;-73
2021/04/03 15:45:50;;;;;;;42.15;23.10;;;;;;;9.15;100.00;94127.91;10461567;28;20025;-73
2021/04/03 15:50:51;;;;;;;42.33;20.88;;;;;;;8.89;100.00;94130.00;10461324;28;20033;-73
2021/04/03 15:55:51;;;;;;;31.17;16.70;;;;;;;8.71;100.00;94150.19;10459405;28;20407;-73
2021/04/03 16:00:52;;;;;;;27.27;16.25;;;;;;;8.34;100.00;94154.84;10462408;28;20021;-77
2021/04/03 16:05:52;;;;;;;26.27;13.53;;;;;;;8.02;100.00;94172.06;10461491;28;20036;-77
2021/04/03 16:10:53;;;;;;;24.55;13.25;;;;;;;7.84;100.00;94164.59;10461814;28;20887;-77
2021/04/03 16:15:54;;;;;;;25.85;13.27;;;;;;;7.94;100.00;94158.41;10460063;28;20048;-77
2021/04/03 16:20:54;;;;;;;27.90;15.82;;;;;;;7.84;100.00;94176.09;10479305;28;20048;-77
2021/04/03 16:25:55;;;;;;;26.80;14.57;;;;;;;7.72;100.00;94196.16;10483846;28;20020;-77
2021/04/03 16:30:55;;;;;;;24.35;13.80;;;;;;;7.68;100.00;94198.59;10482623;28;20027;-77
2021/04/03 16:35:55;;;;;;;19.83;13.17;;;;;;;7.62;100.00;94203.13;10481711;28;20028;-77
2021/04/03 16:40:56;;;;;;;23.57;12.93;;;;;;;7.33;100.00;94206.31;10483666;28;20021;-77
2021/04/03 16:45:56;;;;;;;22.03;12.97;;;;;;;6.98;100.00;94210.53;10483007;28;20350;-77
2021/04/03 16:50:56;;;;;;;30.33;15.85;;;;;;;7.22;100.00;94182.53;10481694;28;20036;-78
2021/04/03 16:55:57;;;;;;;25.40;14.27;;;;;;;7.29;100.00;94186.53;10482650;28;20024;-76
2021/04/03 17:00:58;;;;;;;22.45;12.40;;;;;;;6.85;100.00;94208.34;10481161;28;20313;-77
2021/04/03 17:05:59;;;;;;;23.95;14.05;;;;;;;6.54;100.00;94202.88;10460497;28;20941;-77
2021/04/03 17:10:59;;;;;;;24.65;13.77;;;;;;;6.58;100.00;94222.66;10451268;28;20047;-78
2021/04/03 17:16:00;;;;;;;22.88;13.95;;;;;;;6.45;100.00;94231.16;10464153;28;20029;-78
2021/04/03 17:21:00;;;;;;;22.07;13.07;;;;;;;6.42;100.00;94253.00;10445812;28;20120;-78
2021/04/03 17:26:01;;;;;;;21.88;14.10;;;;;;;6.29;100.00;94280.97;10447056;28;20030;-77
2021/04/03 17:31:02;;;;;;;25.17;12.90;;;;;;;6.25;100.00;94280.69;10464054;28;20029;-77
2021/04/03 17:36:04;;;;;;;21.15;12.52;;;;;;;6.08;100.00;94280.03;10470333;28;20033;-78
2021/04/03 17:41:04;;;;;;;18.85;11.40;;;;;;;6.00;100.00;94291.97;10463973;28;20471;-78
2021/04/03 17:46:06;;;;;;;21.10;12.87;;;;;;;5.84;100.00;94301.69;10470869;28;20107;-77
2021/04/03 17:51:06;;;;;;;19.00;11.80;;;;;;;5.83;100.00;94292.06;10478260;28;20301;-78
2021/04/03 17:56:07;;;;;;;19.08;11.80;;;;;;;5.76;100.00;94310.13;10467865;28;20035;-78
2021/04/03 18:01:07;;;;;;;19.47;12.17;;;;;;;5.69;100.00;94328.22;10477329;28;20033;-78
2021/04/03 18:06:07;;;;;;;18.38;11.30;;;;;;;5.63;100.00;94344.16;10467686;28;20139;-78
2021/04/03 18:11:08;;;;;;;17.63;11.13;;;;;;;5.58;100.00;94343.28;10457436;28;20491;-78
2021/04/03 18:16:08;;;;;;;16.60;10.35;;;;;;;5.54;100.00;94356.34;10485392;28;20067;-78
2021/04/03 18:21:09;;;;;;;16.27;10.03;;;;;;;5.51;100.00;94359.47;10490695;28;20016;-78
2021/04/03 18:26:09;;;;;;;14.27;9.63;;;;;;;5.44;100.00;94356.22;10485623;28;20287;-78
2021/04/03 18:31:10;;;;;;;13.77;10.13;;;;;;;5.50;100.00;94349.91;10488402;28;20290;-78
2021/04/03 18:36:10;;;;;;;11.90;8.32;;;;;;;5.43;100.00;94359.94;10470991;28;20361;-78
2021/04/03 18:41:14;;;;;;;14.32;8.20;;;;;;;5.43;100.00;94344.75;10479134;28;21457;-78
2021/04/03 18:46:15;;;;;;;14.48;7.68;;;;;;;5.35;100.00;94349.72;10485098;28;20096;-79
2021/04/03 18:51:16;;;;;;;11.15;7.15;;;;;;;5.29;100.00;94359.53;10470539;28;20400;-78
2021/04/03 18:56:16;;;;;;;10.52;6.75;;;;;;;5.25;100.00;94359.22;10476459;28;20032;-78
2021/04/03 19:01:16;;;;;;;13.23;7.70;;;;;;;5.29;100.00;94368.31;10471710;28;20036;-78
2021/04/03 19:06:17;;;;;;;12.67;7.73;;;;;;;5.31;100.00;94379.50;10488105;28;20102;-78
2021/04/03 19:11:17;;;;;;;12.67;8.10;;;;;;;5.40;100.00;94371.91;10487871;28;20102;-78
2021/04/03 19:16:18;;;;;;;9.32;7.25;;;;;;;5.22;100.00;94388.19;10487406;28;20108;-78
2021/04/03 19:21:18;;;;;;;11.80;7.15;;;;;;;5.07;100.00;94375.50;10487141;28;20499;-77
2021/04/03 19:26:19;;;;;;;12.73;7.77;;;;;;;5.04;100.00;94390.13;10486675;28;20149;-78
2021/04/03 19:31:20;;;;;;;13.45;8.23;;;;;;;5.18;100.00;94385.22;10486605;28;20348;-78
2021/04/03 19:36:21;;;;;;;18.10;8.55;;;;;;;5.52;100.00;94390.41;10475310;28;20032;-77
2021/04/03 19:41:21;;;;;;;17.30;9.40;;;;;;;5.75;100.00;94394.66;10447145;28;20020;-77
2021/04/03 19:46:22;;;;;;;13.90;8.57;;;;;;;5.82;100.00;94397.94;10483197;28;20028;-78
2021/04/03 19:51:22;;;;;;;12.88;9.05;;;;;;;5.98;100.00;94392.78;10485760;28;20028;-74
2021/04/03 19:56:23;;;;;;;9.90;6.73;;;;;;;5.68;100.00;94387.91;10485365;28;20059;-79
2021/04/03 20:01:24;;;;;;;12.10;8.57;;;;;;;5.33;100.00;94394.47;10485744;28;20031;-77
2021/04/03 20:06:24;;;;;;;15.20;8.93;;;;;;;5.39;100.00;94388.16;10477759;28;20041;-78
2021/04/03 20:11:24;;;;;;;14.23;9.77;;;;;;;5.51;100.00;94398.66;10465414;28;20087;-78
2021/04/03 20:16:25;;;;;;;14.97;9.40;;;;;;;5.25;100.00;94388.50;10464774;28;20025;-84
2021/04/03 20:21:25;;;;;;;17.30;10.10;;;;;;;5.39;100.00;94396.16;10465164;28;20016;-75
2021/04/03 20:26:26;;;;;;;16.30;10.65;;;;;;;5.46;100.00;94407.41;10485818;28;20111;-74
2021/04/03 20:31:26;;;;;;;17.07;11.13;;;;;;;5.51;100.00;94398.66;10476779;28;20035;-74
2021/04/03 20:36:26;;;;;;;18.73;9.87;;;;;;;5.57;100.00;94403.00;10484832;28;20032;-74
2021/04/03 20:41:27;;;;;;;13.07;8.13;;;;;;;5.43;100.00;94406.03;10485929;28;20033;-74
2021/04/03 20:46:28;;;;;;;16.83;8.90;;;;;;;5.54;100.00;94398.97;10484022;28;20263;-74
2021/04/03 20:51:28;;;;;;;12.20;7.83;;;;;;;5.56;100.00;94406.72;10484065;28;20060;-74
2021/04/03 20:56:28;;;;;;;12.53;7.07;;;;;;;5.56;100.00;94412.84;10481749;28;20290;-74
2021/04/03 21:01:29;;;;;;;9.53;6.53;;;;;;;5.05;100.00;94412.22;10464076;28;20278;-74
2021/04/03 21:06:29;;;;;;;11.23;7.90;;;;;;;5.09;100.00;94410.69;10442754;28;20049;-74
2021/04/03 21:11:30;;;;;;;9.40;5.47;;;;;;;5.11;100.00;94411.25;10443541;28;20107;-74
2021/04/03 21:16:30;;;;;;;11.27;6.80;;;;;;;5.11;100.00;94422.69;10444568;28;20358;-74
2021/04/03 21:21:30;;;;;;;10.03;6.93;;;;;;;5.25;100.00;94422.34;10482335;28;20468;-74
2021/04/03 21:26:31;;;;;;;8.97;6.10;;;;;;;5.20;100.00;94419.63;10492440;28;20351;-74
2021/04/03 21:31:31;;;;;;;10.03;6.13;;;;;;;5.01;100.00;94430.56;10492287;28;20357;-74
2021/04/03 21:36:32;;;;;;;9.73;6.03;;;;;;;5.14;100.00;94424.06;10454781;28;20091;-74
2021/04/03 21:41:32;;;;;;;11.30;7.35;;;;;;;5.18;100.00;94437.69;10448720;28;20032;-75
2021/04/03 21:46:33;;;;;;;11.80;6.73;;;;;;;5.02;100.00;94445.47;10449763;28;20040;-75
2021/04/03 21:51:33;;;;;;;8.47;5.90;;;;;;;4.93;100.00;94442.44;10468559;28;20322;-75
2021/04/03 21:56:34;;;;;;;8.23;5.73;;;;;;;4.75;100.00;94438.19;10490355;28;20032;-75
2021/04/03 22:01:34;;;;;;;10.27;6.57;;;;;;;4.70;100.00;94451.44;10491096;28;20263;-74
2021/04/03 22:06:35;;;;;;;10.88;6.70;;;;;;;4.75;100.00;94466.66;10489701;28;20059;-74
2021/04/03 22:11:38;;;;;;;9.70;6.57;;;;;;;4.82;100.00;94477.16;10491794;28;20037;-74
2021/04/03 22:16:38;;;;;;;10.25;7.57;;;;;;;4.94;100.00;94470.69;10493052;28;20539;-74
2021/04/03 22:21:39;;;;;;;10.30;6.00;;;;;;;4.83;100.00;94471.59;10492186;28;20127;-74
2021/04/03 22:26:39;;;;;;;9.30;6.13;;;;;;;4.73;100.00;94460.75;10490802;28;20039;-74
2021/04/03 22:31:40;;;;;;;8.13;5.82;;;;;;;4.32;100.00;94474.22;10491692;28;20028;-74
2021/04/03 22:36:40;;;;;;;8.77;6.10;;;;;;;4.02;100.00;94466.50;10491258;28;20427;-74
2021/04/03 22:41:41;;;;;;;9.40;5.43;;;;;;;4.02;100.00;94474.47;10488943;28;20403;-75
2021/04/03 22:46:41;;;;;;;10.20;6.72;;;;;;;3.72;100.00;94480.84;10491158;28;20373;-74
2021/04/03 22:51:41;;;;;;;8.73;6.25;;;;;;;3.53;100.00;94489.00;10490661;28;20028;-74